createdAt,value
2023-03-26T00:01:58.393Z,99617.78
2023-03-26T00:04:29.959Z,99610.28
2023-03-26T00:07:01.811Z,99621.47
2023-03-26T00:09:33.310Z,99623.09
2023-03-26T00:12:05.177Z,99628.63
2023-03-26T00:14:37.418Z,99635.19
2023-03-26T00:17:09.265Z,99635.69
2023-03-26T00:19:40.790Z,99634.06
2023-03-26T00:22:14.015Z,99632.09
2023-03-26T00:24:48.391Z,99642.81
2023-03-26T00:27:20.233Z,99638.34
2023-03-26T00:29:51.742Z,99646.66
2023-03-26T00:32:28.196Z,99643.00
2023-03-26T00:35:01.608Z,99647.84
2023-03-26T00:37:34.169Z,99656.25
2023-03-26T00:40:07.655Z,99645.06
2023-03-26T00:42:39.510Z,99642.41
2023-03-26T00:45:11.232Z,99641.59
2023-03-26T00:47:43.808Z,99633.47
2023-03-26T00:50:16.306Z,99648.94
2023-03-26T00:52:48.284Z,99640.19
2023-03-26T00:55:19.819Z,99650.78
2023-03-26T00:57:51.346Z,99644.09
2023-03-26T01:00:22.891Z,99643.50
2023-03-26T01:02:55.788Z,99639.22
2023-03-26T01:05:28.865Z,99641.88
2023-03-26T01:08:00.414Z,99645.56
2023-03-26T01:10:38.640Z,99645.34
2023-03-26T01:13:10.522Z,99657.28
2023-03-26T01:15:42.160Z,99653.59
2023-03-26T01:18:14.417Z,99664.34
2023-03-26T01:20:46.754Z,99658.25
2023-03-26T01:23:19.781Z,99669.16
2023-03-26T01:25:51.358Z,99663.78
2023-03-26T01:28:23.418Z,99677.66
2023-03-26T01:30:58.558Z,99659.69
2023-03-26T01:33:34.225Z,99663.81
2023-03-26T01:36:06.061Z,99664.03
2023-03-26T01:38:37.935Z,99663.81
2023-03-26T01:41:09.709Z,99656.91
2023-03-26T01:43:41.571Z,99648.50
2023-03-26T01:46:13.144Z,99655.72
2023-03-26T01:48:45.038Z,99663.00
2023-03-26T01:51:16.599Z,99663.81
2023-03-26T01:53:48.511Z,99667.06
2023-03-26T01:56:20.151Z,99669.13
2023-03-26T01:58:51.983Z,99664.75
2023-03-26T02:01:24.446Z,99663.59
2023-03-26T02:03:56.174Z,99665.88
2023-03-26T02:06:30.994Z,99674.72
2023-03-26T02:09:02.981Z,99684.13
2023-03-26T02:11:35.927Z,99670.00
2023-03-26T02:14:07.724Z,99660.78
2023-03-26T02:16:39.744Z,99668.66
2023-03-26T02:19:15.903Z,99668.28
2023-03-26T02:21:49.722Z,99669.97
2023-03-26T02:24:21.218Z,99657.38
2023-03-26T02:26:53.122Z,99665.09
2023-03-26T02:29:26.971Z,99666.22
2023-03-26T02:31:58.537Z,99672.75
2023-03-26T02:34:30.310Z,99675.25
2023-03-26T02:37:01.869Z,99671.50
2023-03-26T02:39:33.410Z,99674.75
2023-03-26T02:42:05.516Z,99666.56
2023-03-26T02:44:40.123Z,99669.81
2023-03-26T02:47:11.986Z,99677.16
2023-03-26T02:49:43.594Z,99680.41
2023-03-26T02:52:18.855Z,99681.16
2023-03-26T02:54:50.483Z,99676.44
2023-03-26T02:57:22.338Z,99677.47
2023-03-26T02:59:53.897Z,99679.75
2023-03-26T03:02:25.781Z,99676.66
2023-03-26T03:05:01.567Z,99680.72
2023-03-26T03:07:38.151Z,99683.28
2023-03-26T03:10:10.023Z,99684.31
2023-03-26T03:12:41.894Z,99690.06
2023-03-26T03:15:13.386Z,99685.72
2023-03-26T03:17:45.152Z,99678.88
2023-03-26T03:20:16.838Z,99693.06
2023-03-26T03:22:48.775Z,99691.38
2023-03-26T03:25:22.204Z,99690.56
2023-03-26T03:27:54.010Z,99687.34
2023-03-26T03:30:25.709Z,99699.13
2023-03-26T03:32:58.516Z,99694.22
2023-03-26T03:35:30.068Z,99695.28
2023-03-26T03:38:01.768Z,99700.34
2023-03-26T03:40:33.425Z,99686.53
2023-03-26T03:43:05.232Z,99701.47
2023-03-26T03:45:36.772Z,99695.94
2023-03-26T03:48:08.669Z,99697.34
2023-03-26T03:50:40.587Z,99697.34
2023-03-26T03:53:15.828Z,99696.53
2023-03-26T03:55:56.820Z,99705.88
2023-03-26T03:58:31.335Z,99703.63
2023-03-26T04:01:03.013Z,99714.41
2023-03-26T04:03:39.048Z,99707.47
2023-03-26T04:06:11.114Z,99709.72
2023-03-26T04:08:42.993Z,99709.34
2023-03-26T04:11:14.552Z,99710.38
2023-03-26T04:13:46.412Z,99715.44
2023-03-26T04:16:18.032Z,99723.13
2023-03-26T04:18:49.931Z,99720.84
2023-03-26T04:21:21.496Z,99720.91
2023-03-26T04:23:54.265Z,99720.47
2023-03-26T04:26:25.802Z,99720.34
2023-03-26T04:28:57.361Z,99718.53
2023-03-26T04:31:31.989Z,99714.81
2023-03-26T04:34:05.909Z,99714.84
2023-03-26T04:36:37.404Z,99720.34
2023-03-26T04:39:09.259Z,99714.41
2023-03-26T04:41:40.739Z,99716.47
2023-03-26T04:44:14.557Z,99722.78
2023-03-26T04:46:46.169Z,99718.53
2023-03-26T04:49:18.004Z,99712.78
2023-03-26T04:51:49.511Z,99722.16
2023-03-26T04:54:21.497Z,99718.41
2023-03-26T04:56:53.121Z,99718.78
2023-03-26T04:59:26.464Z,99641.72
2023-03-26T05:01:59.868Z,99722.91
2023-03-26T05:04:31.840Z,99717.84
2023-03-26T05:07:03.373Z,99717.03
2023-03-26T05:09:35.132Z,99714.75
2023-03-26T05:12:06.663Z,99710.31
2023-03-26T05:14:38.162Z,99720.19
2023-03-26T05:17:10.927Z,99712.84
2023-03-26T05:19:42.926Z,99723.50
2023-03-26T05:22:14.453Z,99721.81
2023-03-26T05:24:46.343Z,99722.41
2023-03-26T05:27:20.151Z,99714.59
2023-03-26T05:29:52.019Z,99720.25
2023-03-26T05:35:32.076Z,99723.13
2023-03-26T05:38:03.797Z,99722.41
2023-03-26T05:40:35.329Z,99729.03
2023-03-26T05:43:07.042Z,99733.53
2023-03-26T05:45:38.537Z,99727.44
2023-03-26T05:48:10.594Z,99725.19
2023-03-26T05:50:42.125Z,99724.22
2023-03-26T05:53:13.855Z,99733.00
2023-03-26T05:55:50.528Z,99726.16
2023-03-26T05:58:22.377Z,99718.56
2023-03-26T06:00:57.080Z,99719.81
2023-03-26T06:03:29.035Z,99734.59
2023-03-26T06:06:00.644Z,99729.03
2023-03-26T06:08:32.456Z,99729.09
2023-03-26T06:11:03.974Z,99728.22
2023-03-26T06:13:35.954Z,99730.34
2023-03-26T06:16:07.541Z,99730.56
2023-03-26T06:18:39.454Z,99722.91
2023-03-26T06:21:11.329Z,99731.16
2023-03-26T06:23:43.299Z,99731.34
2023-03-26T06:26:14.818Z,99728.00
2023-03-26T06:28:46.782Z,99738.81
2023-03-26T06:31:19.235Z,99742.00
2023-03-26T06:33:51.547Z,99735.19
2023-03-26T06:36:23.121Z,99742.69
2023-03-26T06:38:54.661Z,99739.56
2023-03-26T06:41:26.154Z,99756.38
2023-03-26T06:43:57.893Z,99749.94
2023-03-26T06:46:29.513Z,99745.03
2023-03-26T06:49:01.398Z,99750.78
2023-03-26T06:51:33.100Z,99757.25
2023-03-26T06:54:05.027Z,99756.00
2023-03-26T06:56:36.546Z,99756.34
2023-03-26T06:59:08.614Z,99773.78
2023-03-26T07:01:40.407Z,99762.09
2023-03-26T07:04:12.259Z,99756.34
2023-03-26T07:06:43.777Z,99760.06
2023-03-26T07:09:15.590Z,99760.19
2023-03-26T07:11:47.110Z,99754.41
2023-03-26T07:14:18.955Z,99748.34
2023-03-26T07:16:50.781Z,99748.75
2023-03-26T07:19:22.785Z,99746.84
2023-03-26T07:21:54.285Z,99748.59
2023-03-26T07:24:26.392Z,99740.63
2023-03-26T07:26:57.899Z,99742.72
2023-03-26T07:29:29.737Z,99735.44
2023-03-26T07:32:01.266Z,99744.22
2023-03-26T07:34:33.118Z,99758.44
2023-03-26T07:37:04.603Z,99753.31
2023-03-26T07:39:36.775Z,99755.13
2023-03-26T07:42:08.351Z,99754.84
2023-03-26T07:44:40.216Z,99757.69
2023-03-26T07:47:11.742Z,99760.50
2023-03-26T07:49:43.422Z,99753.84
2023-03-26T07:52:15.307Z,99763.53
2023-03-26T07:54:47.073Z,99751.16
2023-03-26T07:57:18.614Z,99760.88
2023-03-26T07:59:50.485Z,99759.25
2023-03-26T08:02:21.984Z,99758.28
2023-03-26T08:04:53.572Z,99754.53
2023-03-26T08:07:25.189Z,99753.25
2023-03-26T08:09:56.704Z,99748.16
2023-03-26T08:12:28.234Z,99749.78
2023-03-26T08:14:59.761Z,99748.63
2023-03-26T08:17:31.563Z,99741.13
2023-03-26T08:20:07.597Z,99751.06
2023-03-26T08:22:41.005Z,99745.59
2023-03-26T08:25:14.116Z,99740.06
2023-03-26T08:27:46.081Z,99747.44
2023-03-26T08:30:18.114Z,99739.38
2023-03-26T08:32:49.707Z,99754.06
2023-03-26T08:35:21.324Z,99748.41
2023-03-26T08:37:53.236Z,99745.16
2023-03-26T08:40:24.946Z,99752.69
2023-03-26T08:42:56.514Z,99744.81
2023-03-26T08:45:28.428Z,99745.25
2023-03-26T08:48:01.800Z,99732.78
2023-03-26T08:50:33.617Z,99734.56
2023-03-26T08:53:05.110Z,99731.06
2023-03-26T08:55:37.125Z,99731.09
2023-03-26T08:58:08.963Z,99727.47
2023-03-26T09:00:40.932Z,99724.03
2023-03-26T09:03:12.468Z,99720.72
2023-03-26T09:05:44.299Z,99719.25
2023-03-26T09:08:15.903Z,99722.31
2023-03-26T09:10:47.643Z,99717.28
2023-03-26T09:13:19.210Z,99724.56
2023-03-26T09:15:51.033Z,99717.00
2023-03-26T09:18:22.556Z,99720.03
2023-03-26T09:20:54.267Z,99724.31
2023-03-26T09:23:26.027Z,99709.84
2023-03-26T09:25:57.620Z,99709.00
2023-03-26T09:28:29.131Z,99707.38
2023-03-26T09:31:00.929Z,99707.59
2023-03-26T09:33:32.522Z,99698.22
2023-03-26T09:36:04.279Z,99703.88
2023-03-26T09:38:35.848Z,99705.13
2023-03-26T09:41:07.684Z,99706.59
2023-03-26T09:43:39.199Z,99700.41
2023-03-26T09:46:10.992Z,99706.41
2023-03-26T09:48:42.544Z,99702.25
2023-03-26T09:51:14.067Z,99703.22
2023-03-26T09:53:45.778Z,99704.09
2023-03-26T09:56:17.708Z,99702.56
2023-03-26T09:58:49.341Z,99702.41
2023-03-26T10:01:20.949Z,99708.72
2023-03-26T10:03:52.933Z,99707.22
2023-03-26T10:06:24.697Z,99704.34
2023-03-26T10:08:56.706Z,99709.06
2023-03-26T10:11:28.633Z,99373.78
2023-03-26T10:14:00.318Z,99696.91
2023-03-26T10:16:31.857Z,99703.06
2023-03-26T10:19:04.800Z,99705.69
2023-03-26T10:21:36.326Z,99704.84
2023-03-26T10:24:07.874Z,99703.69
2023-03-26T10:26:39.380Z,99700.53
2023-03-26T10:29:11.528Z,99702.16
2023-03-26T10:31:43.033Z,99696.50
2023-03-26T10:34:28.556Z,99706.16
2023-03-26T10:37:01.007Z,99709.97
2023-03-26T10:39:37.681Z,99704.88
2023-03-26T10:42:10.380Z,99702.53
2023-03-26T10:44:43.880Z,99699.66
2023-03-26T10:47:15.619Z,99700.97
2023-03-26T10:49:50.126Z,99695.22
2023-03-26T10:52:21.650Z,99692.25
2023-03-26T10:54:53.171Z,99679.78
2023-03-26T10:57:24.682Z,99697.75
2023-03-26T10:59:56.364Z,99699.50
2023-03-26T11:02:30.185Z,99696.56
2023-03-26T11:05:02.524Z,99690.84
2023-03-26T11:07:34.270Z,99685.53
2023-03-26T11:10:06.554Z,99684.25
2023-03-26T11:12:38.059Z,99690.84
2023-03-26T11:15:09.936Z,99692.78
2023-03-26T11:17:41.776Z,99681.72
2023-03-26T11:20:13.706Z,99690.66
2023-03-26T11:22:45.267Z,99691.34
2023-03-26T11:25:17.064Z,99683.00
2023-03-26T11:27:48.631Z,99687.25
2023-03-26T11:30:20.505Z,99675.69
2023-03-26T11:32:52.040Z,99683.38
2023-03-26T11:35:40.180Z,99686.25
2023-03-26T11:38:13.038Z,99681.47
2023-03-26T11:40:49.204Z,99672.34
2023-03-26T11:43:20.691Z,99683.84
2023-03-26T11:45:54.028Z,99685.84
2023-03-26T11:48:25.553Z,99680.72
2023-03-26T11:50:57.331Z,99677.84
2023-03-26T11:53:29.158Z,99680.13
2023-03-26T11:56:01.227Z,99674.25
2023-03-26T11:58:33.880Z,99674.31
2023-03-26T12:01:05.733Z,99675.28
2023-03-26T12:03:38.168Z,99660.94
2023-03-26T12:06:11.451Z,99658.53
2023-03-26T12:08:42.956Z,99658.56
2023-03-26T12:11:14.825Z,99657.56
2023-03-26T12:13:46.461Z,99652.19
2023-03-26T12:16:18.358Z,99643.78
2023-03-26T12:18:49.911Z,99630.56
2023-03-26T12:21:21.777Z,99629.34
2023-03-26T12:23:53.311Z,99627.97
2023-03-26T12:26:25.288Z,99636.41
2023-03-26T12:28:56.791Z,99629.84
2023-03-26T12:31:30.428Z,99624.50
2023-03-26T12:34:02.028Z,99623.13
2023-03-26T12:36:34.006Z,99611.13
2023-03-26T12:39:42.573Z,99619.56
2023-03-26T12:43:51.506Z,99626.47
2023-03-26T12:44:58.840Z,99628.25
2023-03-26T12:48:01.145Z,99633.78
2023-03-26T12:50:34.348Z,99619.53
2023-03-26T12:53:06.821Z,99620.63
2023-03-26T12:55:38.633Z,99623.94
2023-03-26T12:58:13.801Z,99629.34
2023-03-26T13:01:03.266Z,99623.88
2023-03-26T13:03:34.823Z,99626.63
2023-03-26T13:06:06.990Z,99633.56
2023-03-26T13:08:39.503Z,99631.38
2023-03-26T13:11:11.407Z,99626.88
2023-03-26T13:13:44.111Z,99612.47
2023-03-26T13:16:16.334Z,99609.53
2023-03-26T13:18:48.243Z,99604.97
2023-03-26T13:21:20.322Z,99623.16
2023-03-26T13:23:51.859Z,99628.50
2023-03-26T13:26:23.592Z,99618.06
2023-03-26T13:28:55.147Z,99618.84
2023-03-26T13:31:26.779Z,99619.41
2023-03-26T13:33:58.303Z,99608.94
2023-03-26T13:36:30.233Z,99615.63
2023-03-26T13:39:03.545Z,99612.41
2023-03-26T13:41:35.193Z,99603.03
2023-03-26T13:44:06.764Z,99600.94
2023-03-26T13:46:38.685Z,99604.91
2023-03-26T13:49:10.623Z,99602.91
2023-03-26T13:51:42.265Z,99599.56
2023-03-26T13:54:13.775Z,99599.59
2023-03-26T13:56:45.961Z,99594.84
2023-03-26T13:59:17.512Z,99591.72
2023-03-26T14:01:51.141Z,99599.03
2023-03-26T14:04:22.964Z,99597.88
2023-03-26T14:06:57.406Z,99591.88
2023-03-26T14:09:29.182Z,99587.75
2023-03-26T14:12:00.714Z,99587.28
2023-03-26T14:14:32.221Z,99581.28
2023-03-26T14:17:03.828Z,99586.25
2023-03-26T14:19:36.030Z,99582.09
2023-03-26T14:22:07.884Z,99586.69
2023-03-26T14:24:39.411Z,99457.94
2023-03-26T14:27:11.555Z,99592.50
2023-03-26T14:29:57.171Z,99586.16
2023-03-26T14:32:30.193Z,99580.78
2023-03-26T14:35:01.770Z,99583.00
2023-03-26T14:37:33.669Z,99568.63
2023-03-26T14:40:15.118Z,99582.59
2023-03-26T14:42:46.709Z,99573.53
2023-03-26T14:45:18.525Z,99578.38
2023-03-26T14:47:50.232Z,99568.22
2023-03-26T14:50:22.534Z,99580.50
2023-03-26T14:53:01.405Z,99574.41
2023-03-26T14:55:33.464Z,99579.50
2023-03-26T14:58:05.072Z,99573.34
2023-03-26T15:00:39.204Z,99562.34
2023-03-26T15:03:10.906Z,99573.06
2023-03-26T15:05:42.847Z,99559.16
2023-03-26T15:08:14.377Z,99559.69
2023-03-26T15:10:47.212Z,99562.88
2023-03-26T15:13:18.735Z,99563.94
2023-03-26T15:15:54.035Z,99558.88
2023-03-26T15:18:26.713Z,99558.34
2023-03-26T15:20:58.398Z,99559.94
2023-03-26T15:23:29.967Z,99554.31
2023-03-26T15:26:01.526Z,99554.84
2023-03-26T15:28:33.521Z,99554.84
2023-03-26T15:31:06.939Z,99556.66
2023-03-26T15:33:38.438Z,99554.50
2023-03-26T15:36:10.416Z,99551.88
2023-03-26T15:38:42.482Z,99559.59
2023-03-26T15:41:17.745Z,99556.38
2023-03-26T15:44:22.374Z,99564.13
2023-03-26T15:46:41.256Z,99562.19
2023-03-26T15:49:16.418Z,99557.84
2023-03-26T15:51:49.685Z,99560.47
2023-03-26T15:54:22.637Z,99557.09
2023-03-26T15:56:54.701Z,99553.28
2023-03-26T15:59:26.621Z,99556.75
2023-03-26T16:02:03.050Z,99553.72
2023-03-26T16:04:34.578Z,99553.09
2023-03-26T16:07:09.434Z,99452.19
2023-03-26T16:09:42.034Z,99556.25
2023-03-26T16:12:14.879Z,99554.03
2023-03-26T16:14:46.835Z,99564.06
2023-03-26T16:17:18.819Z,99563.56
2023-03-26T16:19:50.463Z,99558.00
2023-03-26T16:22:22.410Z,99558.31
2023-03-26T16:24:54.532Z,99553.31
2023-03-26T16:27:26.378Z,99565.03
2023-03-26T16:29:58.301Z,99563.16
2023-03-26T16:32:30.243Z,99562.88
2023-03-26T16:35:02.081Z,99566.78
2023-03-26T16:37:37.310Z,99566.94
2023-03-26T16:40:08.861Z,99571.06
2023-03-26T16:42:40.944Z,99562.53
2023-03-26T16:45:12.791Z,99574.72
2023-03-26T16:47:44.362Z,99574.88
2023-03-26T16:50:16.196Z,99568.25
2023-03-26T16:52:48.170Z,99576.16
2023-03-26T16:55:19.700Z,99577.97
2023-03-26T16:57:51.616Z,99573.53
2023-03-26T17:00:24.584Z,99582.19
2023-03-26T17:02:57.006Z,99580.09
2023-03-26T17:05:28.601Z,99592.09
2023-03-26T17:08:01.334Z,99588.88
2023-03-26T17:10:32.862Z,99585.97
2023-03-26T17:13:04.814Z,99590.09
2023-03-26T17:15:36.749Z,99593.25
2023-03-26T17:18:08.626Z,99596.38
2023-03-26T17:20:40.210Z,99594.81
2023-03-26T17:23:12.106Z,99604.91
2023-03-26T17:25:43.606Z,99594.66
2023-03-26T17:28:15.548Z,99600.88
2023-03-26T17:30:47.097Z,99606.59
2023-03-26T17:33:19.014Z,99605.44
2023-03-26T17:35:50.841Z,99602.00
2023-03-26T17:38:23.180Z,99608.34
2023-03-26T17:40:55.445Z,99611.03
2023-03-26T17:43:27.475Z,99609.16
2023-03-26T17:46:02.668Z,99610.44
2023-03-26T17:48:35.816Z,99626.88
2023-03-26T17:51:07.394Z,99618.91
2023-03-26T17:53:38.988Z,99626.00
2023-03-26T17:56:10.622Z,99628.19
2023-03-26T17:58:42.654Z,99615.25
2023-03-26T18:01:14.417Z,99620.91
2023-03-26T18:03:46.454Z,99616.88
2023-03-26T18:06:18.006Z,99629.00
2023-03-26T18:08:49.547Z,99623.69
2023-03-26T18:11:21.401Z,99627.50
2023-03-26T18:13:52.945Z,99626.22
2023-03-26T18:16:26.452Z,99630.75
2023-03-26T18:18:58.907Z,99633.28
2023-03-26T18:21:30.772Z,99634.81
2023-03-26T18:24:02.664Z,99638.59
2023-03-26T18:26:34.319Z,99632.38
2023-03-26T18:29:05.844Z,99641.41
2023-03-26T18:31:37.541Z,99635.66
2023-03-26T18:34:11.346Z,99637.19
2023-03-26T18:36:43.283Z,99637.09
2023-03-26T18:39:14.795Z,99640.78
2023-03-26T18:41:46.527Z,99635.13
2023-03-26T18:44:18.142Z,99641.72
2023-03-26T18:46:49.972Z,99641.84
2023-03-26T18:49:21.571Z,99635.47
2023-03-26T18:51:57.227Z,99643.00
2023-03-26T18:54:29.141Z,99643.91
2023-03-26T18:57:00.753Z,99652.50
2023-03-26T18:59:32.592Z,99642.56
2023-03-26T19:02:04.669Z,99646.41
2023-03-26T19:04:37.220Z,99646.63
2023-03-26T19:07:09.925Z,99647.06
2023-03-26T19:09:41.439Z,99644.09
2023-03-26T19:12:13.307Z,99650.09
2023-03-26T19:14:44.805Z,99656.81
2023-03-26T19:17:16.673Z,99649.16
2023-03-26T19:19:48.166Z,99648.59
2023-03-26T19:22:20.128Z,99656.53
2023-03-26T19:24:51.888Z,99657.34
2023-03-26T19:27:23.958Z,99661.84
2023-03-26T19:29:55.446Z,99662.44
2023-03-26T19:32:27.193Z,99659.31
2023-03-26T19:34:58.737Z,99660.66
2023-03-26T19:37:30.614Z,99667.97
2023-03-26T19:40:06.340Z,99662.44
2023-03-26T19:42:43.927Z,99504.22
2023-03-26T19:45:16.402Z,99663.56
2023-03-26T19:47:50.372Z,99661.94
2023-03-26T19:50:26.281Z,99668.06
2023-03-26T19:53:09.027Z,99659.50
2023-03-26T19:55:46.809Z,99668.28
2023-03-26T19:58:19.969Z,99667.69
2023-03-26T20:00:51.480Z,99671.25
2023-03-26T20:03:23.168Z,99663.88
2023-03-26T20:05:54.735Z,99663.66
2023-03-26T20:08:29.645Z,99664.69
2023-03-26T20:11:01.393Z,99674.47
2023-03-26T20:13:33.242Z,99673.66
2023-03-26T20:16:05.517Z,99670.72
2023-03-26T20:18:38.886Z,99681.13
2023-03-26T20:21:10.393Z,99415.03
2023-03-26T20:23:43.547Z,99684.41
2023-03-26T20:26:15.103Z,99686.69
2023-03-26T20:28:52.717Z,99687.25
2023-03-26T20:31:25.207Z,99697.38
2023-03-26T20:33:57.547Z,99704.88
2023-03-26T20:36:32.984Z,99703.00
2023-03-26T20:39:06.846Z,99704.28
2023-03-26T20:41:38.912Z,99712.09
2023-03-26T20:44:11.185Z,99719.38
2023-03-26T20:46:43.204Z,99712.38
2023-03-26T20:49:15.309Z,99728.44
2023-03-26T20:51:47.664Z,99717.84
2023-03-26T20:54:19.518Z,99732.44
2023-03-26T20:56:51.078Z,99725.06
2023-03-26T20:59:23.052Z,99732.94
2023-03-26T21:01:54.710Z,99743.59
2023-03-26T21:04:26.528Z,99735.41
2023-03-26T21:07:07.347Z,99738.22
2023-03-26T21:09:47.309Z,99738.50
2023-03-26T21:12:19.026Z,99744.16
2023-03-26T21:14:50.943Z,99746.06
2023-03-26T21:17:22.465Z,99743.63
2023-03-26T21:19:54.656Z,99759.31
2023-03-26T21:22:26.622Z,99752.00
2023-03-26T21:24:58.284Z,99756.91
2023-03-26T21:27:30.286Z,99754.66
2023-03-26T21:30:01.869Z,99766.88
2023-03-26T21:32:34.408Z,99765.47
2023-03-26T21:35:05.941Z,99761.97
2023-03-26T21:37:39.624Z,99769.50
2023-03-26T21:40:14.279Z,99770.13
2023-03-26T21:42:46.403Z,99771.00
2023-03-26T21:45:18.157Z,99768.56
2023-03-26T21:47:50.027Z,99770.78
2023-03-26T21:50:22.161Z,99767.81
2023-03-26T21:52:54.060Z,99764.13
2023-03-26T21:55:25.847Z,99769.09
2023-03-26T21:57:57.364Z,99776.44
2023-03-26T22:00:42.747Z,99769.78
2023-03-26T22:03:15.828Z,99776.69
2023-03-26T22:05:47.486Z,99775.44
2023-03-26T22:08:19.358Z,99779.34
2023-03-26T22:10:51.136Z,99779.13
2023-03-26T22:13:22.962Z,99774.88
2023-03-26T22:15:54.497Z,99783.41
2023-03-26T22:18:30.487Z,99780.97
2023-03-26T22:21:02.046Z,99786.69
2023-03-26T22:23:38.588Z,99780.59
2023-03-26T22:26:10.110Z,99788.94
2023-03-26T22:28:41.818Z,99780.25
2023-03-26T22:31:13.408Z,99783.72
2023-03-26T22:33:45.379Z,99790.47
2023-03-26T22:36:22.346Z,99795.56
2023-03-26T22:38:55.172Z,99803.16
2023-03-26T22:41:27.170Z,99797.47
2023-03-26T22:44:09.407Z,99802.78
2023-03-26T22:46:51.384Z,99799.94
2023-03-26T22:49:26.420Z,99801.53
2023-03-26T22:51:57.919Z,99809.91
2023-03-26T22:54:29.773Z,99807.66
2023-03-26T22:57:01.703Z,99813.34
2023-03-26T22:59:33.951Z,99814.16
2023-03-26T23:02:06.099Z,99818.25
2023-03-26T23:04:39.014Z,99819.44
2023-03-26T23:07:10.567Z,99820.69
2023-03-26T23:09:42.406Z,99825.34
2023-03-26T23:12:13.958Z,99826.78
2023-03-26T23:14:45.655Z,99826.38
2023-03-26T23:17:17.564Z,99825.16
2023-03-26T23:19:49.679Z,99828.22
2023-03-26T23:22:21.457Z,99835.34
2023-03-26T23:24:53.692Z,99833.50
2023-03-26T23:27:25.342Z,99845.88
2023-03-26T23:29:56.909Z,99841.41
2023-03-26T23:32:28.558Z,99855.22
2023-03-26T23:35:00.227Z,99857.25
2023-03-26T23:37:34.877Z,99854.00
2023-03-26T23:40:10.438Z,99862.53
2023-03-26T23:42:42.630Z,99863.97
2023-03-26T23:45:14.218Z,99864.97
2023-03-26T23:47:46.657Z,99863.97
2023-03-26T23:50:18.533Z,99875.53
2023-03-26T23:52:50.296Z,99879.78
2023-03-26T23:55:22.235Z,99882.63
2023-03-26T23:57:54.303Z,99893.81
